Welcome to the updated website with new and more accurate equipment. Established 2007


Active alerts


No alerts

Local Station more information Local Station


Mount Mesnard more information Mount Mesnard


Visit our other weather sites:

Template documentation
and downloads

And another site


CBI


Nearby METAR Reports

   
KSAW - Sawyer, Michigan
Updated: 16-08-2018 05:38
Clear  
Clear  
   Wind: Calm
Wind: Calm
Temperature: 59°F
Dew Point: 51.8°F
Humidity: 77%
Barometer: 30.01 inHg
Clouds: Clear
Visibility: 10 mi
Cloud details: Clear
KSAW 160938Z AUTO 00000KT 10SM CLR 15/11 A3001 RMK AO2 T01460107
KESC - Escanaba, Michigan
Updated: 16-08-2018 04:56
Clear  
Clear  
   Wind: Calm
Wind: Calm
Temperature: 60.8°F
Dew Point: 57.2°F
Humidity: 88%
Barometer: 29.98 inHg
Clouds: Clear
Visibility: 10 mi
Cloud details: Clear
KESC 160856Z AUTO 00000KT 10SM CLR 16/14 A2998 RMK AO2 SLP169 T01560144 55004
KIMT - Iron Mountain, MI
Updated: 16-08-2018 04:54
Mostly Cloudy  
Mostly Cloudy  
   Wind: Calm
Wind: Calm
Temperature: 62.6°F
Dew Point: 60.8°F
Humidity: 94%
Barometer: 29.98 inHg
Clouds: Mostly Cloudy
Visibility: 10 mi
Cloud details: Mostly Cloudy 2438 m
KIMT 160854Z AUTO 00000KT 10SM BKN080 17/16 A2998 RMK AO2 SLP150 T01720156 55001
KGRB - Green Bay, WI
Updated: 16-08-2018 05:24
Mist, Overcast  
Mist, Overcast  
   Wind: NE 5.8 mph
Wind: NE 5.8 mph
Temperature: 69.8°F
Dew Point: 69.8°F
Humidity: 100%
Barometer: 29.96 inHg
Clouds: Overcast
Visibility: 3 mi
Cloud details: Overcast 61 m
KGRB 160924Z AUTO 05005KT 3SM BR OVC002 21/21 A2996 RMK AO2 T02110206
KDET - Detroit, MI
Updated: 16-08-2018 04:53
Mostly Cloudy  
Mostly Cloudy  
   Wind: South 5.8 mph
Wind: South 5.8 mph
Temperature: 73.4°F
Dew Point: 68°F
Humidity: 83%
Barometer: 29.99 inHg
Clouds: Mostly Cloudy
Visibility: 10 mi
Cloud details: Mostly Cloudy 3658 m
KDET 160853Z 19005KT 10SM BKN120 23/20 A2999 RMK AO2 RAE0759 SLP149 P0000 60000 T02280200 56010
 

Script developed by  Saratoga-weather.org Adapted for the template by  Weerstation Leuven

You find our weather info also at:

Weather Underground

Midwestern Weather Network

WeatherlinkIP

Citizen Weather Observer Program (CWOP)

Equipment we use:

Weather-station
Davis VP2

Weather-program
Davis Weatherlink.Com

Davis VP2

Davis Weatherlink.Com